Time;durP1;ratioP1;P1;durP2;ratioP2;P2;SDS_P1;SDS_P2;PMS_P1;PMS_P2;Temp;Humidity;BMP_temperature;BMP_pressure;BME280_temperature;BME280_humidity;BME280_pressure;Samples;Min_cycle;Max_cycle;Signal;HPM_P1;HPM_P2
2023/01/03 00:00:34;;;;;;;5.70;2.80;;;23.70;54.30;;;;;;5020457;28;20025;-65
2023/01/03 00:03:00;;;;;;;4.72;2.70;;;23.60;54.30;;;;;;5021578;28;20029;-65
2023/01/03 00:05:25;;;;;;;4.82;2.97;;;23.60;54.30;;;;;;5014661;28;20507;-65
2023/01/03 00:07:51;;;;;;;4.47;2.58;;;23.60;54.40;;;;;;5018066;28;20044;-65
2023/01/03 00:10:17;;;;;;;5.05;2.90;;;23.50;54.30;;;;;;5024481;28;20461;-65
2023/01/03 00:12:42;;;;;;;5.25;2.70;;;23.50;54.30;;;;;;5019053;28;20088;-65
2023/01/03 00:15:09;;;;;;;5.55;2.70;;;23.50;54.40;;;;;;5020304;28;20495;-65
2023/01/03 00:17:34;;;;;;;4.40;2.67;;;23.50;54.40;;;;;;5018608;28;20042;-65
2023/01/03 00:20:00;;;;;;;5.93;2.60;;;23.40;54.40;;;;;;5016849;28;20088;-65
2023/01/03 00:22:25;;;;;;;5.82;2.50;;;23.40;54.40;;;;;;5017465;28;20132;-65
2023/01/03 00:24:52;;;;;;;4.72;2.65;;;23.40;54.40;;;;;;5022816;28;20064;-65
2023/01/03 00:27:18;;;;;;;4.25;2.40;;;23.40;54.40;;;;;;5019111;28;20033;-65
2023/01/03 00:29:43;;;;;;;4.75;2.42;;;23.40;54.50;;;;;;5022673;28;20026;-65
2023/01/03 00:32:09;;;;;;;5.10;2.90;;;23.40;54.50;;;;;;5020403;28;20400;-65
2023/01/03 00:34:35;;;;;;;5.22;2.60;;;23.30;54.50;;;;;;5018698;28;20030;-65
2023/01/03 00:37:02;;;;;;;4.60;2.60;;;23.30;54.50;;;;;;5023699;28;20041;-65
2023/01/03 00:39:27;;;;;;;4.95;2.70;;;23.30;54.50;;;;;;5020648;28;20079;-65
2023/01/03 00:41:53;;;;;;;5.15;2.97;;;23.30;54.60;;;;;;5017060;28;20026;-65
2023/01/03 00:44:19;;;;;;;4.93;2.50;;;23.30;54.90;;;;;;5017695;28;20026;-66
2023/01/03 00:46:45;;;;;;;4.95;2.70;;;23.20;54.50;;;;;;5017144;28;20037;-65
2023/01/03 00:49:11;;;;;;;4.25;2.60;;;23.20;54.60;;;;;;5018539;28;20525;-64
2023/01/03 00:51:39;;;;;;;4.88;2.50;;;23.20;54.60;;;;;;5016724;28;20030;-64
2023/01/03 00:54:06;;;;;;;5.22;2.33;;;23.20;54.60;;;;;;5016600;28;20030;-65
2023/01/03 00:56:34;;;;;;;4.85;2.50;;;23.20;54.70;;;;;;5018273;28;20054;-65
2023/01/03 00:59:01;;;;;;;4.82;2.40;;;23.20;54.70;;;;;;5016899;28;20034;-64
2023/01/03 01:01:32;;;;;;;4.68;2.50;;;23.20;55.40;;;;;;5018803;28;20040;-67
2023/01/03 01:04:07;;;;;;;4.63;2.63;;;23.10;54.70;;;;;;5014599;28;20469;-65
2023/01/03 01:06:44;;;;;;;4.45;2.70;;;23.10;54.70;;;;;;5019223;28;20026;-65
2023/01/03 01:09:13;;;;;;;4.95;2.35;;;23.10;55.20;;;;;;5019595;28;20038;-65
2023/01/03 01:11:38;;;;;;;3.88;2.30;;;23.10;54.80;;;;;;5023427;28;20030;-65
2023/01/03 01:14:18;;;;;;;3.67;2.28;;;23.00;54.70;;;;;;5024755;28;20033;-65
2023/01/03 01:16:46;;;;;;;4.70;2.40;;;23.00;54.80;;;;;;5015209;28;20053;-64
2023/01/03 01:19:12;;;;;;;4.57;2.65;;;23.00;54.80;;;;;;5017504;28;20463;-66
2023/01/03 01:21:38;;;;;;;4.00;2.30;;;23.00;54.80;;;;;;5018598;28;20175;-64
2023/01/03 01:24:04;;;;;;;3.25;2.10;;;23.00;54.90;;;;;;5022630;28;20104;-64
2023/01/03 01:26:29;;;;;;;4.65;2.58;;;23.00;54.90;;;;;;5019767;28;20021;-65
2023/01/03 01:28:55;;;;;;;4.35;2.30;;;22.90;54.90;;;;;;5014630;28;20037;-64
2023/01/03 01:31:23;;;;;;;4.57;2.30;;;22.90;54.90;;;;;;5017425;28;20496;-65
2023/01/03 01:33:50;;;;;;;4.35;2.35;;;22.90;54.90;;;;;;5015112;28;20026;-65
2023/01/03 01:36:18;;;;;;;3.03;1.90;;;22.90;54.90;;;;;;5016534;28;20116;-65
2023/01/03 01:38:46;;;;;;;3.93;2.37;;;22.90;55.00;;;;;;5016291;28;20119;-64
2023/01/03 01:41:14;;;;;;;3.50;2.08;;;22.90;55.00;;;;;;5018154;28;20260;-65
2023/01/03 01:46:42;;;;;;;4.20;2.53;;;22.80;55.00;;;;;;5017995;28;20187;-64
2023/01/03 01:49:13;;;;;;;4.43;2.40;;;22.80;55.00;;;;;;5027364;28;20033;-65
2023/01/03 01:51:39;;;;;;;4.05;2.10;;;22.80;55.00;;;;;;5023148;28;20026;-65
2023/01/03 01:54:05;;;;;;;4.25;2.50;;;22.80;55.10;;;;;;5020426;28;20022;-65
2023/01/03 01:56:53;;;;;;;3.00;1.90;;;22.80;55.10;;;;;;5020176;28;20029;-64
2023/01/03 01:59:18;;;;;;;4.47;2.65;;;22.70;55.10;;;;;;5016708;28;20030;-65
2023/01/03 02:01:46;;;;;;;3.83;2.10;;;22.70;55.10;;;;;;5018151;28;20490;-64
2023/01/03 02:04:21;;;;;;;3.42;2.20;;;22.70;55.10;;;;;;5020084;28;20116;-65
2023/01/03 02:06:47;;;;;;;3.17;1.80;;;22.70;55.20;;;;;;5020520;28;20064;-65
2023/01/03 02:09:13;;;;;;;4.30;2.20;;;22.70;55.20;;;;;;5023164;28;20022;-65
2023/01/03 02:15:58;;;;;;;3.95;2.00;;;22.60;55.20;;;;;;5019166;28;20100;-65
2023/01/03 02:18:39;;;;;;;3.58;2.10;;;22.60;55.20;;;;;;5016310;28;20432;-66
2023/01/03 02:21:35;;;;;;;3.35;2.00;;;22.60;55.20;;;;;;5021105;28;20034;-65
2023/01/03 02:24:22;;;;;;;3.20;1.95;;;22.60;55.30;;;;;;5022257;28;20112;-65
2023/01/03 02:26:54;;;;;;;3.63;2.00;;;22.60;55.30;;;;;;5022765;28;20071;-65
2023/01/03 02:29:29;;;;;;;3.47;1.90;;;22.60;55.80;;;;;;5017762;28;20033;-64
2023/01/03 02:32:32;;;;;;;3.30;1.70;;;22.50;55.30;;;;;;5019282;28;20049;-65
2023/01/03 02:35:16;;;;;;;3.40;1.83;;;22.50;55.30;;;;;;5018319;28;20466;-65
2023/01/03 02:37:45;;;;;;;3.55;1.92;;;22.50;55.40;;;;;;5020572;28;20568;-65
2023/01/03 02:40:33;;;;;;;2.40;1.67;;;22.50;55.40;;;;;;5019459;28;20057;-65
2023/01/03 02:43:06;;;;;;;2.88;1.70;;;22.50;55.40;;;;;;5018270;28;20248;-64
2023/01/03 02:45:53;;;;;;;2.88;1.65;;;22.50;55.50;;;;;;5020400;28;20032;-64
2023/01/03 02:48:44;;;;;;;3.28;1.80;;;22.50;55.50;;;;;;5020143;28;20061;-65
2023/01/03 02:51:17;;;;;;;2.80;1.70;;;22.40;55.40;;;;;;5022257;28;20480;-65
2023/01/03 02:53:46;;;;;;;3.33;1.60;;;22.40;55.50;;;;;;5018490;28;20029;-65
2023/01/03 02:56:26;;;;;;;2.80;1.55;;;22.40;55.50;;;;;;5017336;28;20092;-65
2023/01/03 02:58:59;;;;;;;3.17;1.73;;;22.40;55.50;;;;;;5018299;28;20025;-65
2023/01/03 03:01:28;;;;;;;3.08;1.88;;;22.40;55.50;;;;;;5017938;28;20522;-66
2023/01/03 03:03:55;;;;;;;2.97;1.60;;;22.40;55.50;;;;;;5033608;28;20026;-64
2023/01/03 03:06:40;;;;;;;3.22;1.60;;;22.30;55.50;;;;;;5015025;28;20377;-65
2023/01/03 03:09:06;;;;;;;2.70;1.50;;;22.30;56.10;;;;;;5024310;28;20354;-64
2023/01/03 03:14:39;;;;;;;2.65;1.65;;;22.30;55.60;;;;;;5017763;28;20037;-65
2023/01/03 03:17:29;;;;;;;2.30;1.40;;;22.30;55.60;;;;;;5019886;28;20042;-65
2023/01/03 03:25:48;;;;;;;2.15;1.30;;;22.30;55.70;;;;;;5018847;28;20029;-65
2023/01/03 03:28:34;;;;;;;2.53;1.60;;;22.30;55.70;;;;;;5017439;28;20028;-65
2023/01/03 03:31:46;;;;;;;2.75;1.55;;;22.30;55.80;;;;;;5020420;28;20074;-65
2023/01/03 03:34:20;;;;;;;2.95;1.60;;;22.20;55.70;;;;;;5021323;28;20033;-64
2023/01/03 03:36:55;;;;;;;2.83;1.60;;;22.20;55.70;;;;;;5015537;28;20365;-65
2023/01/03 03:45:19;;;;;;;2.10;1.27;;;22.20;55.80;;;;;;5021144;28;20040;-64
2023/01/03 03:47:57;;;;;;;2.92;1.60;;;22.20;55.80;;;;;;5022695;28;20030;-65
2023/01/03 03:50:34;;;;;;;2.20;1.20;;;22.20;55.80;;;;;;5017225;28;20026;-65
2023/01/03 03:53:05;;;;;;;2.72;1.50;;;22.20;55.80;;;;;;5018801;28;20476;-65
2023/01/03 03:56:03;;;;;;;2.15;1.27;;;22.20;55.80;;;;;;5024696;28;20030;-65
2023/01/03 03:58:42;;;;;;;2.20;1.30;;;22.10;55.80;;;;;;5028948;28;20512;-65
2023/01/03 04:01:13;;;;;;;2.08;1.23;;;22.10;55.80;;;;;;5021293;28;20030;-64
2023/01/03 04:03:41;;;;;;;2.25;1.33;;;22.10;56.30;;;;;;5017862;28;20030;-65
2023/01/03 04:06:24;;;;;;;3.38;1.40;;;22.10;55.90;;;;;;5017253;28;20034;-65
2023/01/03 04:08:50;;;;;;;3.25;1.70;;;22.10;55.90;;;;;;5018058;28;20047;-64
2023/01/03 04:11:16;;;;;;;2.38;1.50;;;22.10;55.90;;;;;;5017953;28;20500;-65
2023/01/03 04:13:41;;;;;;;2.47;1.30;;;22.10;55.90;;;;;;5021122;28;20033;-65
2023/01/03 04:16:07;;;;;;;2.35;1.40;;;22.10;55.90;;;;;;5018573;28;20025;-65
2023/01/03 04:18:33;;;;;;;2.60;1.33;;;22.10;55.90;;;;;;5017235;28;20112;-65
2023/01/03 04:20:58;;;;;;;2.67;1.48;;;22.10;56.00;;;;;;5019078;28;20393;-65
2023/01/03 04:23:24;;;;;;;2.10;1.30;;;22.10;56.00;;;;;;5018793;28;20071;-65
2023/01/03 04:25:50;;;;;;;2.13;1.40;;;22.00;56.00;;;;;;5018424;28;20041;-65
2023/01/03 04:28:17;;;;;;;2.10;1.23;;;22.00;56.00;;;;;;5017326;28;20050;-65
2023/01/03 04:30:44;;;;;;;2.22;1.30;;;22.00;56.00;;;;;;5020230;28;20103;-65
2023/01/03 04:33:09;;;;;;;2.05;1.30;;;22.00;56.00;;;;;;5020565;28;20071;-66
2023/01/03 04:35:36;;;;;;;2.13;1.30;;;22.00;56.00;;;;;;5021487;28;20033;-64
2023/01/03 04:38:01;;;;;;;2.75;1.65;;;22.00;56.00;;;;;;5020968;28;20033;-64
2023/01/03 04:40:27;;;;;;;2.28;1.23;;;22.00;56.00;;;;;;5019877;28;20040;-65
2023/01/03 04:45:38;;;;;;;2.20;1.25;;;22.00;56.00;;;;;;5018480;28;20044;-65
2023/01/03 04:48:04;;;;;;;1.98;1.20;;;22.00;56.10;;;;;;5017720;28;20037;-65
2023/01/03 04:50:29;;;;;;;2.17;1.35;;;22.00;56.10;;;;;;5020076;28;20181;-65
2023/01/03 04:52:55;;;;;;;2.65;1.40;;;21.90;56.10;;;;;;5015615;28;20482;-65
2023/01/03 04:55:21;;;;;;;1.95;1.10;;;22.00;56.10;;;;;;5018668;28;20041;-65
2023/01/03 04:57:47;;;;;;;2.22;1.30;;;21.90;56.10;;;;;;5014816;28;20042;-64
2023/01/03 05:00:13;;;;;;;1.70;1.10;;;21.90;56.10;;;;;;5018454;28;20041;-65
2023/01/03 05:02:39;;;;;;;1.95;1.23;;;21.90;56.10;;;;;;5019318;28;20033;-64
2023/01/03 05:05:05;;;;;;;1.58;1.10;;;21.90;56.10;;;;;;5017821;28;20033;-65
2023/01/03 05:07:31;;;;;;;2.08;1.30;;;21.90;56.10;;;;;;5020065;28;20022;-64
2023/01/03 05:09:57;;;;;;;2.38;1.27;;;21.90;56.10;;;;;;5021038;28;20076;-65
2023/01/03 05:12:23;;;;;;;2.25;1.13;;;21.90;56.10;;;;;;5019092;28;20061;-65
2023/01/03 05:14:49;;;;;;;1.70;1.20;;;21.90;56.10;;;;;;5016701;28;20060;-64
2023/01/03 05:17:14;;;;;;;1.90;1.15;;;21.90;56.20;;;;;;5017572;28;20038;-64
2023/01/03 05:27:54;;;;;;;1.80;1.17;;;21.90;56.20;;;;;;5020975;28;20056;-64
2023/01/03 05:30:20;;;;;;;1.70;1.20;;;21.80;56.10;;;;;;5020381;28;20469;-65
2023/01/03 05:32:45;;;;;;;1.95;1.10;;;21.90;56.20;;;;;;5020964;28;20025;-65
2023/01/03 05:35:11;;;;;;;1.65;1.15;;;21.80;56.20;;;;;;5020570;28;20034;-65
2023/01/03 05:37:36;;;;;;;1.70;1.20;;;21.80;56.20;;;;;;5022468;28;20042;-65
2023/01/03 05:40:02;;;;;;;2.55;1.40;;;21.80;56.20;;;;;;5021893;28;20072;-65
2023/01/03 05:42:28;;;;;;;1.98;1.20;;;21.80;56.20;;;;;;5021382;28;20121;-66
2023/01/03 05:44:53;;;;;;;1.80;1.10;;;21.80;56.20;;;;;;5026407;28;20036;-65
2023/01/03 05:47:19;;;;;;;2.90;1.42;;;21.80;56.20;;;;;;5037469;28;20389;-64
2023/01/03 05:49:45;;;;;;;1.95;1.30;;;21.80;56.20;;;;;;5025185;28;20040;-65
2023/01/03 05:52:10;;;;;;;1.67;1.27;;;21.80;56.20;;;;;;5022125;28;20473;-65
2023/01/03 05:54:36;;;;;;;1.65;1.08;;;21.80;56.20;;;;;;5023232;28;20033;-66
2023/01/03 05:57:01;;;;;;;1.83;1.20;;;21.80;56.20;;;;;;5021146;28;20026;-65
2023/01/03 05:59:27;;;;;;;1.75;1.10;;;21.80;56.20;;;;;;5020216;28;20337;-66
2023/01/03 06:01:52;;;;;;;1.77;1.20;;;21.80;56.20;;;;;;5020678;28;20103;-64
2023/01/03 06:04:18;;;;;;;2.28;1.10;;;21.80;56.20;;;;;;5019538;28;20029;-65
2023/01/03 06:06:44;;;;;;;1.90;1.10;;;21.80;56.20;;;;;;5021995;28;20452;-64
2023/01/03 06:09:10;;;;;;;1.80;1.20;;;21.80;56.20;;;;;;5018566;28;20032;-65
2023/01/03 06:11:35;;;;;;;1.52;1.00;;;21.80;56.20;;;;;;5020810;28;20021;-65
2023/01/03 06:14:01;;;;;;;1.63;1.02;;;21.80;56.20;;;;;;5019279;28;20077;-65
2023/01/03 06:19:11;;;;;;;2.15;1.27;;;21.80;56.20;;;;;;5024484;28;20076;-65
2023/01/03 06:21:36;;;;;;;1.60;1.05;;;21.80;56.20;;;;;;5023405;28;20025;-65
2023/01/03 06:24:04;;;;;;;1.85;1.17;;;21.70;56.20;;;;;;5020889;28;20409;-65
2023/01/03 06:26:30;;;;;;;2.33;1.30;;;21.70;56.20;;;;;;5020899;28;20026;-66
2023/01/03 06:28:56;;;;;;;1.98;1.00;;;21.70;56.20;;;;;;5021604;28;20029;-65
2023/01/03 06:31:21;;;;;;;1.52;1.10;;;21.70;56.20;;;;;;5016275;28;20492;-65
2023/01/03 06:33:47;;;;;;;1.90;1.10;;;21.70;56.20;;;;;;5017548;28;20026;-65
2023/01/03 06:36:15;;;;;;;1.63;1.20;;;21.70;56.70;;;;;;5020858;28;20088;-65
2023/01/03 06:38:41;;;;;;;1.52;0.93;;;21.70;56.30;;;;;;5033688;28;20029;-65
2023/01/03 06:41:07;;;;;;;2.30;1.10;;;21.70;56.20;;;;;;5021566;28;20048;-65
2023/01/03 06:43:33;;;;;;;1.70;1.00;;;21.70;56.30;;;;;;5018376;28;20496;-65
2023/01/03 06:54:26;;;;;;;1.60;1.10;;;21.70;56.30;;;;;;5021703;28;20665;-65
2023/01/03 06:56:53;;;;;;;1.63;1.02;;;21.70;56.30;;;;;;5019009;28;20059;-65
2023/01/03 06:59:19;;;;;;;1.50;1.00;;;21.70;56.30;;;;;;5022549;28;20029;-65
2023/01/03 07:01:46;;;;;;;1.63;1.10;;;21.70;56.30;;;;;;5020254;28;20069;-65
2023/01/03 07:04:13;;;;;;;1.70;1.13;;;21.70;56.30;;;;;;5015743;28;20041;-65
2023/01/03 07:06:39;;;;;;;1.58;1.10;;;21.70;56.30;;;;;;5026614;28;20162;-65
2023/01/03 07:09:05;;;;;;;1.42;1.10;;;21.70;56.30;;;;;;5018338;28;20499;-65
2023/01/03 07:11:31;;;;;;;1.80;1.15;;;21.70;56.30;;;;;;5020844;28;20508;-65
2023/01/03 07:13:57;;;;;;;1.38;0.90;;;21.70;56.30;;;;;;5020962;28;20026;-65
2023/01/03 07:16:28;;;;;;;1.65;1.02;;;21.60;56.30;;;;;;5019333;28;20037;-65
2023/01/03 07:18:55;;;;;;;1.55;1.05;;;21.60;56.30;;;;;;5032387;28;20034;-65
2023/01/03 07:21:22;;;;;;;1.30;0.95;;;21.60;56.30;;;;;;5023348;28;20025;-65
2023/01/03 07:23:48;;;;;;;1.80;1.10;;;21.60;56.30;;;;;;5020127;28;20037;-65
2023/01/03 07:26:13;;;;;;;2.30;1.17;;;21.60;56.30;;;;;;5019495;28;20444;-65
2023/01/03 07:28:39;;;;;;;1.42;0.93;;;21.60;56.30;;;;;;5021298;28;20025;-64
2023/01/03 07:31:06;;;;;;;1.77;0.98;;;21.60;56.30;;;;;;5019998;28;20033;-65
2023/01/03 07:33:32;;;;;;;1.75;1.20;;;21.60;56.30;;;;;;5019757;28;20480;-65
2023/01/03 07:36:05;;;;;;;1.15;0.90;;;21.60;56.30;;;;;;5018055;28;20560;-65
2023/01/03 07:38:31;;;;;;;1.70;1.00;;;21.60;56.30;;;;;;5019943;28;20107;-65
2023/01/03 07:40:57;;;;;;;1.50;0.98;;;21.60;56.40;;;;;;5016087;28;20026;-65
2023/01/03 07:43:38;;;;;;;1.42;1.00;;;21.60;56.40;;;;;;5020026;28;20040;-65
2023/01/03 07:46:12;;;;;;;1.92;1.10;;;21.60;56.40;;;;;;5022423;28;20042;-65
2023/01/03 07:48:38;;;;;;;1.33;1.00;;;21.60;56.40;;;;;;5020789;28;20057;-65
2023/01/03 07:51:05;;;;;;;1.48;1.00;;;21.60;56.40;;;;;;5023794;28;20029;-64
2023/01/03 07:53:31;;;;;;;1.15;0.80;;;21.60;56.40;;;;;;5018861;28;20924;-65
2023/01/03 07:56:07;;;;;;;1.50;1.05;;;21.60;56.40;;;;;;5022757;28;20032;-65
2023/01/03 07:58:34;;;;;;;1.58;1.00;;;21.60;56.40;;;;;;5019928;28;20036;-64
2023/01/03 08:01:05;;;;;;;2.13;1.02;;;21.60;56.50;;;;;;5018526;28;20022;-65
2023/01/03 08:03:33;;;;;;;1.20;0.90;;;21.60;56.50;;;;;;5022649;28;20030;-65
2023/01/03 08:06:00;;;;;;;1.38;0.90;;;21.50;56.40;;;;;;5017478;28;20440;-66
2023/01/03 08:08:26;;;;;;;1.67;0.90;;;21.50;56.40;;;;;;5019436;28;20080;-64
2023/01/03 08:13:36;;;;;;;1.52;0.90;;;21.50;56.50;;;;;;5019905;28;20033;-65
2023/01/03 08:16:03;;;;;;;1.45;1.00;;;21.50;56.40;;;;;;5019937;28;20022;-65
2023/01/03 08:18:29;;;;;;;2.35;1.08;;;21.50;56.50;;;;;;5019967;28;20021;-65
2023/01/03 08:20:56;;;;;;;1.55;1.00;;;21.50;56.50;;;;;;5018225;28;20448;-65
2023/01/03 08:23:25;;;;;;;1.00;0.80;;;21.50;56.50;;;;;;5014933;28;20511;-65
2023/01/03 08:25:57;;;;;;;0.95;0.80;;;21.50;56.50;;;;;;5018730;28;20080;-65
2023/01/03 08:28:23;;;;;;;1.27;0.80;;;21.50;56.50;;;;;;5017232;28;20033;-65
2023/01/03 08:30:49;;;;;;;1.13;0.88;;;21.50;56.50;;;;;;5022676;28;20064;-66
2023/01/03 08:33:17;;;;;;;1.25;0.90;;;21.50;56.50;;;;;;5019132;28;20040;-65
2023/01/03 08:35:49;;;;;;;1.40;0.90;;;21.50;56.50;;;;;;5023421;28;20040;-64
2023/01/03 08:38:20;;;;;;;1.10;0.80;;;21.50;56.50;;;;;;5018700;28;20491;-65
2023/01/03 08:40:46;;;;;;;1.50;0.90;;;21.50;56.60;;;;;;5015194;28;20017;-64
2023/01/03 08:43:14;;;;;;;1.60;0.90;;;21.50;56.50;;;;;;5015188;28;20061;-65
2023/01/03 08:45:40;;;;;;;1.40;0.90;;;21.50;56.60;;;;;;5019402;28;20037;-65
2023/01/03 08:48:08;;;;;;;1.23;0.90;;;21.50;57.10;;;;;;5018509;28;20361;-65
2023/01/03 08:50:35;;;;;;;1.37;1.00;;;21.50;56.60;;;;;;5017809;28;20075;-66
2023/01/03 08:53:00;;;;;;;1.15;0.90;;;21.50;56.60;;;;;;5022815;28;20057;-65
2023/01/03 08:55:26;;;;;;;1.08;0.80;;;21.40;56.50;;;;;;5022743;28;20053;-64
2023/01/03 08:57:51;;;;;;;1.33;0.90;;;21.50;56.60;;;;;;5021622;28;20477;-65
2023/01/03 09:00:17;;;;;;;1.45;0.90;;;21.50;56.60;;;;;;5023043;28;20029;-66
2023/01/03 09:02:43;;;;;;;1.33;0.80;;;21.40;56.50;;;;;;5025121;28;20034;-64
2023/01/03 09:05:09;;;;;;;1.48;0.90;;;21.40;56.50;;;;;;5018841;28;20099;-65
2023/01/03 09:07:34;;;;;;;1.17;0.90;;;21.50;56.60;;;;;;5023293;28;20034;-64
2023/01/03 09:10:00;;;;;;;2.08;1.10;;;21.40;56.60;;;;;;5024991;28;20388;-64
2023/01/03 09:12:26;;;;;;;1.10;0.80;;;21.40;56.60;;;;;;5023523;28;20017;-65
2023/01/03 09:14:52;;;;;;;1.63;0.90;;;21.40;56.50;;;;;;5020386;28;20518;-65
2023/01/03 09:17:18;;;;;;;1.45;0.80;;;21.40;56.60;;;;;;5021508;28;20038;-65
2023/01/03 09:19:43;;;;;;;1.35;0.80;;;21.40;56.60;;;;;;5024635;28;20476;-65
2023/01/03 09:22:09;;;;;;;1.30;0.95;;;21.40;56.60;;;;;;5024278;28;20030;-66
2023/01/03 09:24:34;;;;;;;1.33;0.80;;;21.40;56.60;;;;;;5022370;28;20061;-65
2023/01/03 09:27:00;;;;;;;1.17;0.90;;;21.40;56.60;;;;;;5023556;28;20052;-65
2023/01/03 09:29:26;;;;;;;1.63;0.88;;;21.40;56.60;;;;;;5022832;28;20041;-64
2023/01/03 09:31:51;;;;;;;1.10;0.82;;;21.40;56.60;;;;;;5023826;28;20029;-66
2023/01/03 09:34:17;;;;;;;1.08;0.90;;;21.40;56.60;;;;;;5023639;28;20031;-64
2023/01/03 09:36:42;;;;;;;1.35;0.90;;;21.40;56.60;;;;;;5024342;28;20121;-64
2023/01/03 09:39:08;;;;;;;1.33;0.80;;;21.40;56.60;;;;;;5018008;28;20033;-65
2023/01/03 09:41:34;;;;;;;1.05;0.80;;;21.40;56.60;;;;;;5017269;28;20105;-66
2023/01/03 09:44:05;;;;;;;1.35;0.90;;;21.40;56.60;;;;;;5021290;28;20521;-65
2023/01/03 09:46:34;;;;;;;0.90;0.73;;;21.40;56.70;;;;;;5036258;28;20032;-64
2023/01/03 09:49:01;;;;;;;1.30;0.90;;;21.40;56.60;;;;;;5021049;28;20017;-65
2023/01/03 10:03:43;;;;;;;1.20;0.80;;;21.30;56.60;;;;;;5018948;28;20036;-65
2023/01/03 10:06:36;;;;;;;1.25;0.73;;;21.30;56.60;;;;;;5016748;28;20034;-65
2023/01/03 10:09:24;;;;;;;0.90;0.80;;;21.30;56.70;;;;;;5018850;28;20036;-65
2023/01/03 10:12:11;;;;;;;1.25;0.70;;;21.30;56.60;;;;;;5020786;28;20072;-65
2023/01/03 10:15:05;;;;;;;0.60;0.57;;;21.40;56.70;;;;;;5020557;28;20029;-64
2023/01/03 10:18:08;;;;;;;1.30;0.90;;;21.30;56.60;;;;;;5024818;28;20116;-64
2023/01/03 10:21:01;;;;;;;1.30;1.00;;;21.30;56.70;;;;;;5027043;28;20060;-64
2023/01/03 10:23:28;;;;;;;0.95;0.80;;;21.30;56.70;;;;;;5019639;28;20551;-65
2023/01/03 10:25:55;;;;;;;1.20;0.85;;;21.30;56.70;;;;;;5022271;28;20030;-65
2023/01/03 10:28:24;;;;;;;0.90;0.80;;;21.30;56.70;;;;;;5019927;28;20216;-65
2023/01/03 10:31:21;;;;;;;1.25;0.80;;;21.30;56.70;;;;;;5020391;28;20599;-65
2023/01/03 10:33:48;;;;;;;0.90;0.70;;;21.30;56.70;;;;;;5019947;28;20129;-65
2023/01/03 10:36:16;;;;;;;0.95;0.70;;;21.30;56.70;;;;;;5018835;28;20537;-64
2023/01/03 10:38:43;;;;;;;1.00;0.75;;;21.30;56.70;;;;;;5016917;28;20446;-65
2023/01/03 10:41:27;;;;;;;1.52;0.90;;;21.30;56.70;;;;;;5021274;28;20465;-64
2023/01/03 10:44:01;;;;;;;1.02;0.80;;;21.30;56.70;;;;;;5021427;28;20430;-64
2023/01/03 10:46:28;;;;;;;0.90;0.80;;;21.30;56.70;;;;;;5023558;28;20025;-65
2023/01/03 10:48:56;;;;;;;1.08;0.80;;;21.30;56.70;;;;;;5023284;28;20040;-64
2023/01/03 10:51:39;;;;;;;1.30;0.80;;;21.30;56.70;;;;;;5018923;28;20021;-64
2023/01/03 10:54:28;;;;;;;0.93;0.75;;;21.30;56.70;;;;;;5021448;28;20029;-65
2023/01/03 10:56:54;;;;;;;1.08;0.70;;;21.30;56.80;;;;;;5021950;28;20481;-65
2023/01/03 10:59:26;;;;;;;1.10;0.70;;;21.30;56.80;;;;;;5020768;28;20044;-65
2023/01/03 11:02:15;;;;;;;1.33;0.80;;;21.30;57.30;;;;;;5017917;28;20025;-64
2023/01/03 11:04:41;;;;;;;0.98;0.68;;;21.30;56.80;;;;;;5019334;28;20045;-64
2023/01/03 11:07:07;;;;;;;1.13;0.80;;;21.20;56.70;;;;;;5019576;28;20084;-64
2023/01/03 11:09:40;;;;;;;0.80;0.70;;;21.30;56.80;;;;;;5018925;28;20057;-64
2023/01/03 11:12:13;;;;;;;0.90;0.70;;;21.20;56.80;;;;;;5021466;28;20393;-65
2023/01/03 11:14:48;;;;;;;1.00;0.70;;;21.30;56.80;;;;;;5020309;28;20021;-64
2023/01/03 11:17:17;;;;;;;1.10;0.70;;;21.20;56.80;;;;;;5018427;28;20038;-65
2023/01/03 11:19:44;;;;;;;0.93;0.70;;;21.20;56.80;;;;;;5019384;28;20026;-65
2023/01/03 11:22:33;;;;;;;0.82;0.80;;;21.20;56.80;;;;;;5021848;28;20361;-64
2023/01/03 11:25:20;;;;;;;1.08;0.75;;;21.30;56.90;;;;;;5017112;28;20037;-65
2023/01/03 11:28:13;;;;;;;0.70;0.70;;;21.30;56.90;;;;;;5022228;28;20171;-64
2023/01/03 11:30:39;;;;;;;1.00;0.73;;;21.20;56.90;;;;;;5018273;28;20084;-65
2023/01/03 11:33:11;;;;;;;1.00;0.82;;;21.20;56.90;;;;;;5015376;28;20458;-66
2023/01/03 11:35:49;;;;;;;1.30;0.73;;;21.20;56.90;;;;;;5017562;28;20029;-65
2023/01/03 11:38:35;;;;;;;0.80;0.70;;;21.20;56.90;;;;;;5024472;28;20485;-64
2023/01/03 11:41:28;;;;;;;0.85;0.70;;;21.20;56.90;;;;;;5013807;28;20104;-65
2023/01/03 11:44:22;;;;;;;0.95;0.80;;;21.20;56.90;;;;;;5016810;28;20421;-65
2023/01/03 11:47:00;;;;;;;0.60;0.60;;;21.20;56.90;;;;;;5016220;28;20037;-65
2023/01/03 11:49:44;;;;;;;1.42;0.70;;;21.20;56.90;;;;;;5020479;28;20132;-64
2023/01/03 11:52:27;;;;;;;0.70;0.70;;;21.20;56.90;;;;;;5018984;28;20044;-65
2023/01/03 11:55:24;;;;;;;0.95;0.70;;;21.20;57.00;;;;;;5018810;28;20037;-64
2023/01/03 11:57:56;;;;;;;1.23;0.73;;;21.20;56.90;;;;;;5021491;28;20038;-65
2023/01/03 12:01:06;;;;;;;1.15;0.70;;;21.20;56.90;;;;;;5019165;28;20025;-64
2023/01/03 12:03:56;;;;;;;1.45;0.75;;;21.20;56.90;;;;;;5029520;28;20584;-64
2023/01/03 12:06:34;;;;;;;1.30;0.85;;;21.20;56.90;;;;;;5016084;28;20041;-65
2023/01/03 12:09:03;;;;;;;1.85;1.00;;;21.20;57.00;;;;;;5017593;28;20029;-64
2023/01/03 12:11:50;;;;;;;1.57;0.97;;;21.30;57.00;;;;;;5018151;28;20026;-65
2023/01/03 12:14:40;;;;;;;2.13;1.10;;;21.20;57.00;;;;;;5022365;28;20603;-64
2023/01/03 12:17:18;;;;;;;1.95;0.90;;;21.20;57.00;;;;;;5016198;28;20025;-65
2023/01/03 12:19:59;;;;;;;2.55;1.10;;;21.30;57.10;;;;;;5033101;28;20428;-65
2023/01/03 12:22:35;;;;;;;1.90;1.00;;;21.20;57.10;;;;;;5020871;28;20121;-64
2023/01/03 12:25:29;;;;;;;1.58;1.10;;;21.30;57.20;;;;;;5022859;28;20023;-65
2023/01/03 12:28:10;;;;;;;2.22;1.15;;;21.20;57.10;;;;;;5020007;28;20045;-65
2023/01/03 12:30:54;;;;;;;3.30;1.15;;;21.30;57.20;;;;;;5019633;28;20511;-65
2023/01/03 12:33:25;;;;;;;2.22;1.20;;;21.30;57.20;;;;;;5014679;28;20469;-64
2023/01/03 12:36:23;;;;;;;3.75;1.30;;;21.30;57.20;;;;;;5019227;28;20033;-65
2023/01/03 12:39:02;;;;;;;3.30;1.17;;;21.30;57.20;;;;;;5020406;28;20026;-65
2023/01/03 12:41:35;;;;;;;3.20;1.27;;;21.30;57.20;;;;;;5014113;28;20030;-65
2023/01/03 12:44:18;;;;;;;3.08;1.20;;;21.30;57.10;;;;;;5015325;28;20037;-64
2023/01/03 12:46:49;;;;;;;3.22;1.30;;;21.30;57.20;;;;;;5017530;28;20511;-65
2023/01/03 12:49:42;;;;;;;4.47;1.55;;;21.30;57.20;;;;;;5016536;28;20018;-65
2023/01/03 12:52:15;;;;;;;3.13;1.48;;;21.30;57.20;;;;;;5017901;28;20034;-65
2023/01/03 12:55:05;;;;;;;3.78;1.45;;;21.30;57.20;;;;;;5018650;28;20369;-65
2023/01/03 12:57:49;;;;;;;3.45;1.40;;;21.30;57.20;;;;;;5020319;28;20034;-64
2023/01/03 13:00:38;;;;;;;2.95;1.38;;;21.30;57.20;;;;;;5026485;28;20034;-65
2023/01/03 13:03:16;;;;;;;4.03;1.55;;;21.30;57.30;;;;;;5030317;28;20033;-63
2023/01/03 13:05:52;;;;;;;4.80;1.70;;;21.30;57.50;;;;;;5017291;28;20033;-63
2023/01/03 13:08:44;;;;;;;3.83;1.70;;;21.30;57.50;;;;;;5020578;28;20033;-64
2023/01/03 13:11:25;;;;;;;4.43;1.77;;;21.40;57.60;;;;;;5016603;28;20037;-64
2023/01/03 13:13:59;;;;;;;6.00;1.90;;;21.40;57.60;;;;;;5016025;28;20014;-63
2023/01/03 13:16:39;;;;;;;4.75;1.90;;;21.40;57.50;;;;;;5014118;28;20384;-63
2023/01/03 13:19:23;;;;;;;4.00;1.63;;;21.50;57.60;;;;;;5017939;28;20489;-64
2023/01/03 13:21:51;;;;;;;5.00;2.10;;;21.50;57.50;;;;;;5020554;28;20445;-63
2023/01/03 13:24:50;;;;;;;4.53;1.73;;;21.50;57.30;;;;;;5017700;28;20045;-63
2023/01/03 13:27:21;;;;;;;5.53;1.80;;;21.60;57.30;;;;;;5015935;28;20355;-63
2023/01/03 13:29:50;;;;;;;4.13;1.83;;;21.60;57.10;;;;;;5019238;28;20037;-63
2023/01/03 13:32:24;;;;;;;4.30;1.90;;;21.70;57.10;;;;;;5022610;28;20022;-63
2023/01/03 13:34:53;;;;;;;5.80;2.17;;;21.70;57.00;;;;;;5020984;28;20029;-64
2023/01/03 13:37:35;;;;;;;6.03;2.03;;;21.70;56.90;;;;;;5019986;28;20037;-64
2023/01/03 13:40:18;;;;;;;5.18;2.30;;;21.70;56.80;;;;;;5015676;28;20034;-63
2023/01/03 13:42:44;;;;;;;4.95;1.95;;;21.70;56.80;;;;;;5021419;28;20105;-64
2023/01/03 13:45:10;;;;;;;5.28;2.33;;;21.70;56.80;;;;;;5023337;28;20132;-63
2023/01/03 13:47:42;;;;;;;4.15;1.88;;;21.70;56.70;;;;;;5023503;28;20025;-64
2023/01/03 13:50:25;;;;;;;4.88;1.90;;;21.80;56.80;;;;;;5021766;28;20500;-64
2023/01/03 13:53:04;;;;;;;5.13;1.88;;;21.70;56.70;;;;;;5018436;28;20057;-64
2023/01/03 13:55:46;;;;;;;4.97;1.98;;;21.80;56.70;;;;;;5022817;28;20048;-63
2023/01/03 13:58:26;;;;;;;4.90;2.20;;;21.80;56.70;;;;;;5023437;28;20117;-63
2023/01/03 14:00:58;;;;;;;4.40;1.80;;;21.80;56.70;;;;;;5022006;28;20042;-64
2023/01/03 14:03:32;;;;;;;6.15;2.20;;;21.80;56.70;;;;;;5022420;28;20034;-63
2023/01/03 14:06:07;;;;;;;5.28;1.92;;;21.80;56.70;;;;;;5020325;28;20437;-64
2023/01/03 14:08:50;;;;;;;4.90;2.00;;;21.90;56.90;;;;;;5022514;28;20022;-63
2023/01/03 14:12:14;;;;;;;3.75;1.70;;;21.90;56.70;;;;;;5019694;28;20555;-63